Time;durP1;ratioP1;P1;durP2;ratioP2;P2;SDS_P1;SDS_P2;PMS_P1;PMS_P2;Temp;Humidity;BMP_temperature;BMP_pressure;BME280_temperature;BME280_humidity;BME280_pressure;Samples;Min_cycle;Max_cycle;Signal;HPM_P1;HPM_P2
2022/05/31 00:00:49;;;;;;;4.57;2.25;;;8.70;99.90;;;;;;4940897;28;20234;-69
2022/05/31 00:03:18;;;;;;;1.90;1.63;;;8.70;99.90;;;;;;4940415;28;20682;-70
2022/05/31 00:05:46;;;;;;;4.00;2.35;;;8.60;99.90;;;;;;4940521;29;20207;-70
2022/05/31 00:08:14;;;;;;;6.35;2.70;;;8.60;99.90;;;;;;4940470;28;20213;-70
2022/05/31 00:10:42;;;;;;;1.95;1.85;;;8.60;99.90;;;;;;4942920;29;20233;-69
2022/05/31 00:13:10;;;;;;;2.10;2.00;;;8.50;99.90;;;;;;4943359;29;20620;-71
2022/05/31 00:15:38;;;;;;;2.25;2.15;;;8.50;99.90;;;;;;4942796;28;20201;-70
2022/05/31 00:18:08;;;;;;;2.55;2.35;;;8.50;99.90;;;;;;4945447;28;20300;-70
2022/05/31 00:20:37;;;;;;;2.22;2.13;;;8.40;99.90;;;;;;4943998;28;20296;-70
2022/05/31 00:23:08;;;;;;;2.75;2.55;;;8.40;99.90;;;;;;4941119;28;20510;-70
2022/05/31 00:25:35;;;;;;;2.58;2.40;;;8.30;99.90;;;;;;4939925;28;20248;-70
2022/05/31 00:28:04;;;;;;;2.80;2.60;;;8.30;99.90;;;;;;4940429;28;20197;-70
2022/05/31 00:30:33;;;;;;;3.30;2.55;;;8.30;99.90;;;;;;4939815;29;20267;-70
2022/05/31 00:33:02;;;;;;;3.83;2.35;;;8.30;99.90;;;;;;4940051;28;20405;-70
2022/05/31 00:35:32;;;;;;;3.13;2.70;;;8.20;99.90;;;;;;4939481;29;20231;-70
2022/05/31 00:38:02;;;;;;;3.20;2.92;;;8.20;99.90;;;;;;4939617;28;20740;-69
2022/05/31 00:40:31;;;;;;;4.40;2.83;;;8.10;99.90;;;;;;4939758;29;20308;-70
2022/05/31 00:43:02;;;;;;;2.33;2.22;;;8.10;99.90;;;;;;4939993;28;20213;-69
2022/05/31 00:45:35;;;;;;;3.60;2.30;;;8.10;99.90;;;;;;4939721;29;20280;-70
2022/05/31 00:48:04;;;;;;;3.28;2.80;;;8.00;99.90;;;;;;4939944;29;20291;-70
2022/05/31 00:50:35;;;;;;;3.15;2.28;;;8.00;99.90;;;;;;4939433;28;20432;-70
2022/05/31 00:53:10;;;;;;;5.00;2.58;;;8.00;99.90;;;;;;4939986;28;20709;-70
2022/05/31 00:55:43;;;;;;;3.97;2.63;;;7.90;99.90;;;;;;4939966;29;20216;-68
2022/05/31 00:58:15;;;;;;;3.33;3.10;;;7.90;99.90;;;;;;4939909;29;20456;-68
2022/05/31 01:00:43;;;;;;;3.20;2.72;;;7.80;99.90;;;;;;4939383;28;20231;-68
2022/05/31 01:03:16;;;;;;;3.15;2.90;;;7.80;99.90;;;;;;4939701;28;20472;-68
2022/05/31 01:05:44;;;;;;;3.60;2.95;;;7.80;99.90;;;;;;4939643;29;20485;-68
2022/05/31 01:08:14;;;;;;;3.03;2.72;;;7.80;99.90;;;;;;4939685;28;20281;-68
2022/05/31 01:10:42;;;;;;;4.28;3.55;;;7.70;99.90;;;;;;4939058;28;20327;-70
2022/05/31 01:13:12;;;;;;;3.47;3.08;;;7.70;99.90;;;;;;4939593;28;20387;-69
2022/05/31 01:15:42;;;;;;;3.42;3.00;;;7.60;99.90;;;;;;4939019;28;20209;-69
2022/05/31 01:18:10;;;;;;;4.90;3.08;;;7.60;99.90;;;;;;4939776;29;20211;-69
2022/05/31 01:20:40;;;;;;;2.85;2.63;;;7.60;99.90;;;;;;4939672;29;20212;-69
2022/05/31 01:23:10;;;;;;;3.17;2.45;;;7.60;99.90;;;;;;4939584;28;20212;-69
2022/05/31 01:25:56;;;;;;;3.28;2.78;;;7.50;99.90;;;;;;4939560;28;20205;-68
2022/05/31 01:28:37;;;;;;;3.85;2.58;;;7.50;99.90;;;;;;4939751;29;20205;-70
2022/05/31 01:31:11;;;;;;;3.97;3.15;;;7.50;99.90;;;;;;4939498;29;20700;-67
2022/05/31 01:33:45;;;;;;;2.83;2.65;;;7.50;99.90;;;;;;4939630;29;20562;-69
2022/05/31 01:36:18;;;;;;;3.00;2.67;;;7.40;99.90;;;;;;4939531;29;20205;-69
2022/05/31 01:38:50;;;;;;;5.18;2.85;;;7.40;99.90;;;;;;4939724;28;20201;-69
2022/05/31 01:41:24;;;;;;;4.22;3.45;;;7.30;99.90;;;;;;4939832;28;20222;-69
2022/05/31 01:43:54;;;;;;;3.90;3.10;;;7.30;99.90;;;;;;4939565;28;20205;-69
2022/05/31 01:46:25;;;;;;;3.10;2.90;;;7.30;99.90;;;;;;4939753;29;20300;-69
2022/05/31 01:48:55;;;;;;;4.03;3.60;;;7.30;99.90;;;;;;4939292;29;20209;-70
2022/05/31 01:51:24;;;;;;;3.53;3.22;;;7.30;99.90;;;;;;4939217;28;20229;-67
2022/05/31 01:53:53;;;;;;;3.75;3.45;;;7.30;99.90;;;;;;4939963;28;20211;-69
2022/05/31 01:56:22;;;;;;;7.15;3.45;;;7.30;99.90;;;;;;4939313;29;20295;-69
2022/05/31 01:58:53;;;;;;;3.80;3.50;;;7.20;99.90;;;;;;4939907;29;20711;-70
2022/05/31 02:01:28;;;;;;;3.85;3.47;;;7.20;99.90;;;;;;4939056;28;20320;-69
2022/05/31 02:03:56;;;;;;;4.20;3.38;;;7.20;99.90;;;;;;4943152;28;20209;-69
2022/05/31 02:06:30;;;;;;;5.03;3.53;;;7.10;99.90;;;;;;4942062;29;20251;-69
2022/05/31 02:08:59;;;;;;;5.45;3.15;;;7.10;99.90;;;;;;4942732;29;20283;-69
2022/05/31 02:11:26;;;;;;;3.55;3.25;;;7.10;99.90;;;;;;4942529;28;20390;-70
2022/05/31 02:13:54;;;;;;;3.30;3.00;;;7.10;99.90;;;;;;4942848;28;20283;-70
2022/05/31 02:16:22;;;;;;;13.80;3.75;;;7.10;99.90;;;;;;4942342;28;20328;-69
2022/05/31 02:21:37;;;;;;;4.93;3.38;;;7.00;99.90;;;;;;4942890;29;20248;-70
2022/05/31 02:24:07;;;;;;;3.85;3.40;;;7.00;99.90;;;;;;4942020;29;20205;-70
2022/05/31 02:26:35;;;;;;;4.25;2.80;;;7.00;99.90;;;;;;4942083;29;20711;-70
2022/05/31 02:29:03;;;;;;;6.25;4.00;;;6.90;99.90;;;;;;4942548;29;20208;-69
2022/05/31 02:31:31;;;;;;;3.70;3.47;;;6.90;99.90;;;;;;4941921;29;20666;-67
2022/05/31 02:34:00;;;;;;;4.07;3.75;;;6.90;99.90;;;;;;4942285;28;20446;-70
2022/05/31 02:36:28;;;;;;;6.40;4.57;;;6.90;99.90;;;;;;4944428;28;20727;-69
2022/05/31 02:38:58;;;;;;;3.65;3.35;;;6.90;99.90;;;;;;4943053;29;20300;-67
2022/05/31 02:41:26;;;;;;;4.05;3.13;;;6.90;99.90;;;;;;4941810;29;20231;-67
2022/05/31 02:43:55;;;;;;;4.38;3.13;;;6.80;99.90;;;;;;4941894;29;20267;-70
2022/05/31 02:46:23;;;;;;;4.70;3.10;;;6.80;99.90;;;;;;4941843;28;20361;-69
2022/05/31 02:48:52;;;;;;;4.00;3.15;;;6.70;99.90;;;;;;4942412;28;20571;-68
2022/05/31 02:51:20;;;;;;;4.65;3.55;;;6.70;99.90;;;;;;4942034;28;20217;-68
2022/05/31 02:53:48;;;;;;;3.90;3.50;;;6.80;99.90;;;;;;4941888;29;20748;-69
2022/05/31 02:56:17;;;;;;;4.95;3.55;;;6.80;99.90;;;;;;4941816;28;20292;-68
2022/05/31 02:58:45;;;;;;;6.53;3.58;;;6.90;99.90;;;;;;4941980;29;20205;-68
2022/05/31 03:01:21;;;;;;;8.80;3.92;;;6.90;99.90;;;;;;4941631;29;20229;-67
2022/05/31 03:03:49;;;;;;;3.42;2.95;;;6.80;99.90;;;;;;4941756;29;20204;-67
2022/05/31 03:06:19;;;;;;;3.97;3.67;;;6.80;99.90;;;;;;4941379;29;20255;-67
2022/05/31 03:08:48;;;;;;;5.90;3.15;;;6.70;99.90;;;;;;4941766;28;20296;-68
2022/05/31 03:11:20;;;;;;;3.88;3.53;;;6.70;99.90;;;;;;4941398;29;20575;-71
2022/05/31 03:13:50;;;;;;;3.90;3.60;;;6.70;99.90;;;;;;4940597;28;20456;-69
2022/05/31 03:16:19;;;;;;;4.40;4.00;;;6.60;99.90;;;;;;4941846;28;20208;-69
2022/05/31 03:18:52;;;;;;;4.63;3.65;;;6.60;99.90;;;;;;4941562;28;20644;-68
2022/05/31 03:21:25;;;;;;;7.82;4.15;;;6.60;99.90;;;;;;4941268;29;20744;-68
2022/05/31 03:23:57;;;;;;;4.00;3.60;;;6.60;99.90;;;;;;4941115;28;20716;-68
2022/05/31 03:26:32;;;;;;;4.18;3.88;;;6.60;99.90;;;;;;4941355;29;20227;-68
2022/05/31 03:29:00;;;;;;;3.90;3.60;;;6.60;99.90;;;;;;4941295;29;20255;-68
2022/05/31 03:31:28;;;;;;;4.95;4.47;;;6.60;99.90;;;;;;4940850;29;20826;-70
2022/05/31 03:33:56;;;;;;;5.20;3.85;;;6.60;99.90;;;;;;4941052;28;20205;-67
2022/05/31 03:36:24;;;;;;;3.97;3.67;;;6.70;99.90;;;;;;4940774;28;20574;-68
2022/05/31 03:38:52;;;;;;;6.38;4.07;;;6.80;99.90;;;;;;4940782;28;20240;-67
2022/05/31 03:41:20;;;;;;;4.45;4.05;;;6.90;99.90;;;;;;4940510;28;20221;-67
2022/05/31 03:43:49;;;;;;;5.57;3.83;;;7.00;99.90;;;;;;4940825;28;20461;-66
2022/05/31 03:46:18;;;;;;;4.90;3.53;;;7.00;99.90;;;;;;4940442;28;20689;-66
2022/05/31 03:48:46;;;;;;;4.70;4.22;;;7.00;99.90;;;;;;4940670;29;20236;-66
2022/05/31 03:51:13;;;;;;;5.75;3.83;;;7.00;99.90;;;;;;4937330;28;22390;-65
2022/05/31 03:53:41;;;;;;;5.30;4.63;;;7.10;99.90;;;;;;4931872;29;20692;-67
2022/05/31 03:56:11;;;;;;;8.45;5.38;;;7.10;99.90;;;;;;4924675;28;20221;-67
2022/05/31 03:58:40;;;;;;;5.60;4.70;;;7.20;99.90;;;;;;4922616;29;20696;-67
2022/05/31 04:01:09;;;;;;;7.32;5.10;;;7.30;99.90;;;;;;4921663;29;20237;-67
2022/05/31 04:03:37;;;;;;;5.30;4.22;;;7.30;99.90;;;;;;4926077;29;20225;-66
2022/05/31 04:06:05;;;;;;;5.20;4.35;;;7.30;99.90;;;;;;4928257;28;20368;-67
2022/05/31 04:08:33;;;;;;;5.35;3.67;;;7.30;99.90;;;;;;4925355;29;20216;-67
2022/05/31 04:11:01;;;;;;;4.63;4.10;;;7.40;99.90;;;;;;4927945;29;20254;-67
2022/05/31 04:13:29;;;;;;;5.13;4.22;;;7.40;99.90;;;;;;4939748;29;20229;-67
2022/05/31 04:16:10;;;;;;;5.05;4.55;;;7.50;99.90;;;;;;4940313;28;20205;-67
2022/05/31 04:18:38;;;;;;;5.38;4.47;;;7.50;99.90;;;;;;4940239;29;20364;-66
2022/05/31 04:21:08;;;;;;;6.18;4.53;;;7.50;99.90;;;;;;4924354;28;20316;-67
2022/05/31 04:26:21;;;;;;;7.22;5.20;;;7.70;99.90;;;;;;4920920;29;20658;-66
2022/05/31 04:28:50;;;;;;;5.97;4.70;;;7.70;99.90;;;;;;4932717;29;20615;-66
2022/05/31 04:31:19;;;;;;;4.43;4.03;;;7.80;99.90;;;;;;4932571;29;20317;-65
2022/05/31 04:33:47;;;;;;;5.53;4.30;;;7.80;99.90;;;;;;4927843;29;20233;-65
2022/05/31 04:36:17;;;;;;;6.25;5.20;;;7.80;99.90;;;;;;4931930;29;20296;-66
2022/05/31 04:38:45;;;;;;;9.02;5.40;;;7.90;99.90;;;;;;4926652;28;20455;-67
2022/05/31 04:41:19;;;;;;;6.55;5.30;;;8.00;99.90;;;;;;4927686;29;20303;-67
2022/05/31 04:43:48;;;;;;;6.10;5.15;;;8.10;99.90;;;;;;4940000;29;20263;-70
2022/05/31 04:46:19;;;;;;;6.55;5.28;;;8.20;99.90;;;;;;4920535;29;20205;-69
2022/05/31 04:48:49;;;;;;;7.43;6.05;;;8.20;99.90;;;;;;4933440;29;20448;-70
2022/05/31 04:51:16;;;;;;;9.10;7.97;;;8.30;99.90;;;;;;4920946;29;20720;-69
2022/05/31 04:53:44;;;;;;;10.30;7.57;;;8.40;99.90;;;;;;4924363;29;20709;-70
2022/05/31 04:56:17;;;;;;;7.10;5.50;;;8.50;99.90;;;;;;4925230;29;20209;-69
2022/05/31 04:58:45;;;;;;;10.45;6.95;;;8.60;99.90;;;;;;4929957;29;20209;-72
2022/05/31 05:01:13;;;;;;;16.40;10.30;;;8.70;99.90;;;;;;4920033;29;20240;-72
2022/05/31 05:03:44;;;;;;;8.90;7.20;;;8.80;99.90;;;;;;4920355;29;20201;-71
2022/05/31 05:06:13;;;;;;;11.38;8.02;;;8.90;99.90;;;;;;4920267;29;20194;-73
2022/05/31 05:08:42;;;;;;;8.98;7.75;;;9.00;99.90;;;;;;4920490;29;20274;-71
2022/05/31 05:11:12;;;;;;;11.30;7.25;;;9.20;99.90;;;;;;4919797;29;20387;-71
2022/05/31 05:13:40;;;;;;;9.57;7.05;;;9.20;99.90;;;;;;4919946;29;20229;-71
2022/05/31 05:16:10;;;;;;;8.05;6.75;;;9.30;99.90;;;;;;4919650;29;20284;-75
2022/05/31 05:18:38;;;;;;;9.27;6.57;;;9.40;99.90;;;;;;4927950;28;20205;-71
2022/05/31 05:21:09;;;;;;;7.43;5.55;;;9.60;99.90;;;;;;4928455;29;20237;-69
2022/05/31 05:23:38;;;;;;;6.15;5.55;;;9.80;99.90;;;;;;4920237;29;20445;-71
2022/05/31 05:26:06;;;;;;;4.60;4.20;;;10.00;99.90;;;;;;4920207;29;20236;-68
2022/05/31 05:31:22;;;;;;;4.47;3.40;;;10.40;99.90;;;;;;4931477;29;20462;-67
2022/05/31 05:33:50;;;;;;;4.50;4.07;;;10.40;99.90;;;;;;4919987;29;20780;-67
2022/05/31 05:36:19;;;;;;;4.73;4.33;;;10.40;99.90;;;;;;4927733;28;20453;-65
2022/05/31 05:38:49;;;;;;;4.25;3.63;;;10.40;99.90;;;;;;4941702;29;20456;-68
2022/05/31 05:41:17;;;;;;;3.53;3.23;;;10.40;99.90;;;;;;4930467;29;20229;-68
2022/05/31 05:43:45;;;;;;;4.37;3.77;;;10.50;99.90;;;;;;4926019;29;20449;-67
2022/05/31 05:46:15;;;;;;;7.10;3.00;;;10.50;99.90;;;;;;4923090;29;21060;-67
2022/05/31 05:48:43;;;;;;;3.60;3.30;;;10.60;99.90;;;;;;4928585;29;20856;-75
2022/05/31 05:51:16;;;;;;;3.20;2.70;;;10.70;99.90;;;;;;4942375;28;20584;-67
2022/05/31 05:53:45;;;;;;;2.90;2.70;;;10.70;99.90;;;;;;4941972;29;20484;-66
2022/05/31 05:56:15;;;;;;;3.37;2.50;;;10.80;99.90;;;;;;4927738;29;20849;-66
2022/05/31 05:58:43;;;;;;;4.23;2.63;;;10.80;99.90;;;;;;4939892;28;20621;-66
2022/05/31 06:01:16;;;;;;;2.70;2.40;;;10.80;99.90;;;;;;4928935;29;20491;-66
2022/05/31 06:03:50;;;;;;;2.37;2.20;;;10.90;99.90;;;;;;4929502;29;20590;-66
2022/05/31 06:06:19;;;;;;;4.70;2.03;;;11.00;99.90;;;;;;4932549;29;20484;-67
2022/05/31 06:08:54;;;;;;;2.00;1.90;;;11.00;99.90;;;;;;4932887;29;20516;-67
2022/05/31 06:11:25;;;;;;;4.40;2.13;;;11.10;99.90;;;;;;4929161;29;20584;-67
2022/05/31 06:13:58;;;;;;;2.60;1.40;;;11.10;99.90;;;;;;4938739;29;20480;-67
2022/05/31 06:16:30;;;;;;;2.20;1.60;;;11.20;99.90;;;;;;4932595;29;20456;-65
2022/05/31 06:19:01;;;;;;;2.00;1.40;;;11.30;99.90;;;;;;4930159;29;20720;-67
2022/05/31 06:21:29;;;;;;;1.63;1.50;;;11.30;99.90;;;;;;4942434;28;20747;-67
2022/05/31 06:24:01;;;;;;;1.63;1.30;;;11.40;99.90;;;;;;4942669;29;20445;-66
2022/05/31 06:26:32;;;;;;;2.27;1.10;;;11.50;99.90;;;;;;4942395;28;20444;-67
2022/05/31 06:28:59;;;;;;;0.97;0.93;;;11.60;99.90;;;;;;4933444;29;20454;-65
2022/05/31 06:31:27;;;;;;;1.37;1.27;;;11.70;99.90;;;;;;4925042;29;20508;-66
2022/05/31 06:33:55;;;;;;;1.50;1.40;;;11.70;99.90;;;;;;4930735;29;20798;-67
2022/05/31 06:36:23;;;;;;;1.30;1.20;;;11.80;99.90;;;;;;4924695;29;20464;-69
2022/05/31 06:38:51;;;;;;;1.40;1.27;;;11.80;99.90;;;;;;4926487;29;20575;-69
2022/05/31 06:41:20;;;;;;;1.23;1.13;;;11.90;99.90;;;;;;4928283;29;20483;-69
2022/05/31 06:43:48;;;;;;;0.93;0.93;;;12.00;99.90;;;;;;4932927;29;20525;-69
2022/05/31 06:46:17;;;;;;;1.30;1.20;;;12.10;99.90;;;;;;4922569;29;20457;-70
2022/05/31 06:48:45;;;;;;;1.30;1.20;;;12.10;99.90;;;;;;4934717;28;21100;-69
2022/05/31 06:56:47;;;;;;;1.20;1.00;;;12.20;99.90;;;;;;4926458;28;20965;-69
2022/05/31 06:56:52;;;;;;;3.33;1.20;;;12.30;99.90;;;;;;4927266;29;21048;-69
2022/05/31 06:59:20;;;;;;;1.10;1.00;;;12.40;99.90;;;;;;4922325;29;20537;-68
2022/05/31 07:01:48;;;;;;;1.30;1.30;;;12.40;99.90;;;;;;4923248;29;20787;-70
2022/05/31 07:04:17;;;;;;;3.37;1.33;;;12.40;99.90;;;;;;4923446;29;20449;-68
2022/05/31 07:06:45;;;;;;;1.03;1.00;;;12.40;99.90;;;;;;4923367;29;20674;-68
2022/05/31 07:09:13;;;;;;;3.30;1.20;;;12.60;99.90;;;;;;4922053;29;20541;-68
2022/05/31 07:11:41;;;;;;;2.60;2.10;;;12.80;99.90;;;;;;4922143;29;20803;-68
2022/05/31 07:14:10;;;;;;;1.77;1.37;;;13.00;99.90;;;;;;4922517;29;20574;-68
2022/05/31 07:16:38;;;;;;;2.27;1.50;;;13.10;99.90;;;;;;4922187;29;20549;-68
2022/05/31 07:19:06;;;;;;;2.33;1.70;;;13.20;99.90;;;;;;4922200;29;20724;-70
2022/05/31 07:21:33;;;;;;;2.20;1.40;;;13.40;99.90;;;;;;4921936;29;20847;-68
2022/05/31 07:24:01;;;;;;;2.30;1.10;;;13.50;99.90;;;;;;4922219;29;20545;-67
2022/05/31 07:26:29;;;;;;;3.77;1.30;;;13.60;99.90;;;;;;4921454;29;20446;-69
2022/05/31 07:29:03;;;;;;;1.47;1.37;;;13.70;99.90;;;;;;4922193;29;20637;-67
2022/05/31 07:31:35;;;;;;;1.60;1.50;;;13.80;99.90;;;;;;4921501;29;20560;-69
2022/05/31 07:34:19;;;;;;;1.07;1.07;;;13.90;99.90;;;;;;4921491;29;20552;-70
2022/05/31 07:36:48;;;;;;;1.63;1.10;;;14.00;99.90;;;;;;4921484;29;20469;-68
2022/05/31 07:39:17;;;;;;;1.77;0.93;;;14.00;99.90;;;;;;4922048;29;20552;-68
2022/05/31 07:41:46;;;;;;;2.63;1.30;;;14.00;99.90;;;;;;4921546;29;21047;-68
2022/05/31 07:44:15;;;;;;;1.77;1.67;;;14.00;99.90;;;;;;4921441;29;20961;-70
2022/05/31 07:46:44;;;;;;;2.20;1.57;;;13.90;99.90;;;;;;4921186;29;20540;-69
2022/05/31 07:49:13;;;;;;;1.00;1.00;;;13.90;99.90;;;;;;4920957;29;20836;-70
2022/05/31 07:51:41;;;;;;;2.07;1.33;;;13.90;99.90;;;;;;4931901;29;20531;-69
2022/05/31 07:54:09;;;;;;;1.03;1.00;;;13.90;99.90;;;;;;4924098;29;20595;-69
2022/05/31 07:56:37;;;;;;;1.30;1.20;;;14.00;99.90;;;;;;4940286;28;20440;-67
2022/05/31 07:59:05;;;;;;;2.30;1.70;;;14.10;99.90;;;;;;4932166;28;21024;-69
2022/05/31 08:01:33;;;;;;;1.13;1.13;;;14.30;99.90;;;;;;4921106;29;20470;-69
2022/05/31 08:04:03;;;;;;;0.97;0.97;;;14.40;99.90;;;;;;4922349;29;20480;-69
2022/05/31 08:06:35;;;;;;;1.60;1.10;;;14.60;99.90;;;;;;4920941;29;20897;-69
2022/05/31 08:09:04;;;;;;;1.13;1.13;;;14.60;99.90;;;;;;4921102;29;20450;-69
2022/05/31 08:11:34;;;;;;;2.30;0.87;;;14.60;99.90;;;;;;4920951;29;20484;-68
2022/05/31 08:14:03;;;;;;;3.37;1.10;;;14.70;99.90;;;;;;4920954;29;20556;-69
2022/05/31 08:16:33;;;;;;;2.00;1.40;;;14.70;99.90;;;;;;4920573;29;21372;-65
2022/05/31 08:19:04;;;;;;;1.53;1.00;;;14.70;99.90;;;;;;4920963;29;20478;-68
2022/05/31 08:21:33;;;;;;;1.37;1.27;;;14.80;99.90;;;;;;4920957;29;20493;-69
2022/05/31 08:24:03;;;;;;;1.90;1.20;;;14.80;99.90;;;;;;4920894;29;20735;-69
2022/05/31 08:26:51;;;;;;;1.20;1.20;;;14.80;99.90;;;;;;4920606;29;20456;-73
2022/05/31 08:29:19;;;;;;;2.00;1.07;;;14.80;99.90;;;;;;4921170;29;20537;-71
2022/05/31 08:31:47;;;;;;;1.90;1.50;;;14.90;99.90;;;;;;4921118;29;20529;-71
2022/05/31 08:34:17;;;;;;;1.20;1.10;;;15.00;99.90;;;;;;4920857;29;20481;-71
2022/05/31 08:36:45;;;;;;;1.10;1.10;;;15.10;99.90;;;;;;4920492;29;20549;-71
2022/05/31 08:39:13;;;;;;;3.47;1.37;;;15.20;99.90;;;;;;4920975;29;20485;-70
2022/05/31 08:41:45;;;;;;;1.40;1.30;;;15.40;99.90;;;;;;4920427;29;20815;-70
2022/05/31 08:44:30;;;;;;;1.53;0.93;;;15.60;99.90;;;;;;4920877;29;20453;-72
2022/05/31 08:47:01;;;;;;;2.00;1.17;;;16.00;99.90;;;;;;4921115;29;20715;-70
2022/05/31 08:52:57;;;;;;;1.93;1.40;;;16.70;99.90;;;;;;4921843;29;20472;-71
2022/05/31 08:58:20;;;;;;;4.73;1.20;;;17.10;99.90;;;;;;4922213;29;20486;-70
2022/05/31 09:00:52;;;;;;;1.97;1.40;;;17.10;99.90;;;;;;4924701;29;20968;-70
2022/05/31 09:03:26;;;;;;;2.40;1.57;;;17.10;99.90;;;;;;4925934;29;20545;-71
2022/05/31 09:06:01;;;;;;;1.47;1.37;;;17.20;99.90;;;;;;4921654;29;20462;-71
2022/05/31 09:08:35;;;;;;;3.03;1.53;;;17.20;99.90;;;;;;4921945;29;20478;-71
2022/05/31 09:11:11;;;;;;;1.10;1.00;;;17.20;99.90;;;;;;4922406;29;20483;-71
2022/05/31 09:13:51;;;;;;;4.20;1.00;;;17.30;99.90;;;;;;4925219;29;20986;-71
2022/05/31 09:16:37;;;;;;;1.90;1.00;;;17.30;99.90;;;;;;4926377;29;20806;-70
2022/05/31 09:19:10;;;;;;;1.40;1.27;;;17.40;99.90;;;;;;4926340;29;20477;-70
2022/05/31 09:21:45;;;;;;;2.13;1.23;;;17.40;99.90;;;;;;4926409;29;20494;-70
2022/05/31 09:24:15;;;;;;;2.13;1.00;;;17.40;99.90;;;;;;4933246;29;20666;-71
2022/05/31 09:27:01;;;;;;;1.40;1.30;;;17.30;99.90;;;;;;4934237;29;20449;-70
2022/05/31 09:29:34;;;;;;;0.87;0.87;;;17.30;99.90;;;;;;4932402;29;20459;-70
2022/05/31 09:32:10;;;;;;;1.40;1.30;;;17.40;99.90;;;;;;4927240;29;21129;-70
2022/05/31 09:35:04;;;;;;;1.23;1.23;;;17.50;99.90;;;;;;4930071;29;20734;-70
2022/05/31 09:37:53;;;;;;;1.80;1.10;;;17.40;99.90;;;;;;4920141;29;20603;-70
2022/05/31 09:40:50;;;;;;;1.57;1.20;;;17.30;99.90;;;;;;4935747;28;20944;-70
2022/05/31 09:43:24;;;;;;;1.23;1.20;;;17.10;99.90;;;;;;4901554;29;21065;-68
2022/05/31 09:45:58;;;;;;;1.83;1.73;;;17.10;99.90;;;;;;4929585;29;20982;-70
2022/05/31 09:48:27;;;;;;;1.43;1.33;;;17.10;99.90;;;;;;4928195;29;20433;-70
2022/05/31 09:51:10;;;;;;;1.50;1.40;;;17.00;99.90;;;;;;4928120;28;20549;-67
2022/05/31 09:59:14;;;;;;;3.03;1.40;;;16.80;99.90;;;;;;4939453;28;20802;-67
2022/05/31 10:01:45;;;;;;;2.30;1.60;;;16.90;99.90;;;;;;4938355;28;20486;-67
2022/05/31 10:04:21;;;;;;;1.13;1.03;;;17.00;99.90;;;;;;4930879;29;20735;-68
2022/05/31 10:06:59;;;;;;;2.50;1.30;;;17.10;99.90;;;;;;4929941;28;20441;-68
2022/05/31 10:09:35;;;;;;;1.77;1.23;;;17.10;99.90;;;;;;4923769;29;20450;-69
2022/05/31 10:12:17;;;;;;;1.20;1.00;;;17.20;99.90;;;;;;4927014;29;21179;-71
2022/05/31 10:14:48;;;;;;;1.63;1.53;;;17.30;99.90;;;;;;4942503;28;20543;-67
2022/05/31 10:17:34;;;;;;;1.40;1.30;;;17.50;99.90;;;;;;4941785;28;20544;-67
2022/05/31 10:20:18;;;;;;;4.23;1.70;;;17.70;99.90;;;;;;4931232;29;20573;-67
2022/05/31 10:22:52;;;;;;;1.37;1.10;;;17.80;99.90;;;;;;4933674;29;20634;-65
2022/05/31 10:25:25;;;;;;;1.30;1.20;;;17.80;99.90;;;;;;4923231;29;20538;-66
2022/05/31 10:27:58;;;;;;;0.80;0.73;;;17.90;99.90;;;;;;4931182;29;20454;-67
2022/05/31 10:30:28;;;;;;;1.20;1.20;;;17.90;99.90;;;;;;4941658;29;20935;-66
2022/05/31 10:32:58;;;;;;;2.10;1.37;;;18.00;99.90;;;;;;4935010;29;20973;-68
2022/05/31 10:35:29;;;;;;;2.23;1.40;;;18.00;99.90;;;;;;4934847;29;20533;-69
2022/05/31 10:38:00;;;;;;;2.07;1.40;;;18.10;99.90;;;;;;4932275;28;21147;-68
2022/05/31 10:40:38;;;;;;;1.80;1.70;;;18.00;99.90;;;;;;4933181;29;20889;-67
2022/05/31 10:43:29;;;;;;;3.50;1.90;;;18.00;99.90;;;;;;4933163;29;20822;-67
2022/05/31 10:45:59;;;;;;;2.23;1.97;;;18.10;99.90;;;;;;4936594;28;20461;-68
2022/05/31 10:48:27;;;;;;;2.57;2.30;;;18.30;99.90;;;;;;4941858;29;20503;-68
2022/05/31 10:51:03;;;;;;;2.17;2.07;;;18.40;99.90;;;;;;4928508;28;20528;-68
2022/05/31 10:53:44;;;;;;;4.20;1.60;;;18.60;99.90;;;;;;4925204;29;20585;-68
2022/05/31 10:56:17;;;;;;;2.83;1.27;;;18.80;99.90;;;;;;4932919;29;21035;-68
2022/05/31 10:58:57;;;;;;;1.00;0.60;;;19.00;99.90;;;;;;4929473;29;21056;-68
2022/05/31 11:01:39;;;;;;;1.40;1.20;;;19.10;99.90;;;;;;4936719;29;20827;-67
2022/05/31 11:04:19;;;;;;;1.10;1.10;;;19.10;99.90;;;;;;4929800;29;21009;-67
2022/05/31 11:06:58;;;;;;;1.87;1.77;;;19.20;99.90;;;;;;4933684;29;20665;-67
2022/05/31 11:12:38;;;;;;;1.47;1.30;;;18.80;99.90;;;;;;4935550;29;20632;-66
2022/05/31 11:15:21;;;;;;;1.83;1.30;;;18.70;99.90;;;;;;4931497;29;20949;-66
2022/05/31 11:18:00;;;;;;;3.03;1.70;;;18.60;99.90;;;;;;4932241;29;20467;-68
2022/05/31 11:20:34;;;;;;;2.73;1.47;;;18.50;99.90;;;;;;4932046;29;20466;-68
2022/05/31 11:23:15;;;;;;;1.50;1.37;;;18.50;99.90;;;;;;4931231;29;20440;-67
2022/05/31 11:25:57;;;;;;;0.77;0.77;;;18.40;99.90;;;;;;4932370;28;21110;-68
2022/05/31 11:29:09;;;;;;;0.97;0.97;;;18.40;99.90;;;;;;4932624;28;20439;-67
2022/05/31 11:31:47;;;;;;;0.77;0.63;;;18.30;99.90;;;;;;4932007;29;20555;-67
2022/05/31 11:34:29;;;;;;;0.80;0.70;;;18.30;99.90;;;;;;4929452;28;20548;-67
2022/05/31 11:37:12;;;;;;;1.37;0.90;;;18.20;99.90;;;;;;4930840;29;20479;-67
2022/05/31 11:39:53;;;;;;;1.57;1.00;;;18.20;99.90;;;;;;4930815;29;20875;-67
2022/05/31 11:42:46;;;;;;;0.70;0.70;;;18.20;99.90;;;;;;4930897;29;20471;-66
2022/05/31 11:45:25;;;;;;;0.77;0.77;;;18.20;99.90;;;;;;4930317;29;20945;-66
2022/05/31 11:48:23;;;;;;;0.80;0.80;;;18.20;99.90;;;;;;4932394;28;20894;-67
2022/05/31 11:51:10;;;;;;;1.23;0.67;;;18.10;99.90;;;;;;4932383;29;21233;-66
2022/05/31 11:54:02;;;;;;;0.80;0.80;;;18.20;99.90;;;;;;4932142;29;20474;-66
2022/05/31 11:56:36;;;;;;;1.00;0.70;;;18.30;99.90;;;;;;4928898;29;21221;-68
2022/05/31 11:59:11;;;;;;;0.93;0.57;;;18.50;99.90;;;;;;4930043;28;20496;-68
2022/05/31 12:01:44;;;;;;;1.43;0.87;;;18.80;99.50;;;;;;4929262;28;20837;-68
2022/05/31 12:04:19;;;;;;;1.20;1.20;;;19.00;99.40;;;;;;4931079;29;20474;-66
2022/05/31 12:06:55;;;;;;;0.70;0.60;;;19.20;98.50;;;;;;4935291;29;20824;-67
2022/05/31 12:09:35;;;;;;;0.70;0.50;;;19.30;98.90;;;;;;4931351;29;20986;-67
2022/05/31 12:12:08;;;;;;;0.80;0.80;;;19.40;98.80;;;;;;4931383;28;20582;-67
2022/05/31 12:14:39;;;;;;;1.57;0.53;;;19.50;99.20;;;;;;4933901;29;20741;-66
2022/05/31 12:17:09;;;;;;;0.50;0.40;;;19.60;98.80;;;;;;4929724;29;20501;-67
2022/05/31 12:19:55;;;;;;;1.70;1.60;;;19.60;98.90;;;;;;4930227;28;20433;-66
2022/05/31 12:22:28;;;;;;;1.27;0.90;;;19.70;98.40;;;;;;4928779;29;20652;-67
2022/05/31 12:25:03;;;;;;;1.50;0.80;;;19.60;98.70;;;;;;4929617;28;20436;-67
2022/05/31 12:27:39;;;;;;;0.73;0.50;;;19.60;99.10;;;;;;4929991;29;20633;-67
2022/05/31 12:30:16;;;;;;;1.47;0.70;;;19.60;99.00;;;;;;4930914;29;20535;-68
2022/05/31 12:32:47;;;;;;;1.17;0.80;;;19.60;99.70;;;;;;4931698;29;20466;-66
2022/05/31 12:35:48;;;;;;;0.80;0.80;;;19.60;99.30;;;;;;4931078;29;20866;-67
2022/05/31 12:38:19;;;;;;;0.77;0.77;;;19.60;99.20;;;;;;4931134;29;20482;-68
2022/05/31 12:40:53;;;;;;;0.60;0.60;;;19.60;99.10;;;;;;4934501;29;20991;-67
2022/05/31 12:43:48;;;;;;;1.10;0.90;;;19.60;99.80;;;;;;4936545;29;20456;-67
2022/05/31 12:46:34;;;;;;;0.83;0.83;;;19.70;98.70;;;;;;4931125;29;20442;-67
2022/05/31 12:49:11;;;;;;;3.10;0.77;;;19.70;98.20;;;;;;4931162;29;20445;-66
2022/05/31 12:51:39;;;;;;;1.00;0.40;;;19.70;98.00;;;;;;4931070;29;20468;-68
2022/05/31 12:54:12;;;;;;;1.00;0.77;;;19.60;98.00;;;;;;4929447;29;20528;-68
2022/05/31 12:56:56;;;;;;;1.30;1.20;;;19.50;97.80;;;;;;4928491;28;20776;-68
2022/05/31 12:59:51;;;;;;;1.07;0.97;;;19.50;97.70;;;;;;4930186;28;20960;-67
2022/05/31 13:02:32;;;;;;;1.47;0.67;;;19.40;97.60;;;;;;4930230;29;21042;-68
2022/05/31 13:05:08;;;;;;;1.00;0.90;;;19.40;97.40;;;;;;4936244;29;20448;-68
2022/05/31 13:07:45;;;;;;;1.13;1.03;;;19.30;98.00;;;;;;4933722;29;20486;-71
2022/05/31 13:19:34;;;;;;;0.60;0.60;;;19.40;98.80;;;;;;4933120;29;20832;-72
2022/05/31 13:22:13;;;;;;;1.07;0.70;;;19.70;98.70;;;;;;4937667;28;20536;-67
2022/05/31 13:24:48;;;;;;;1.13;0.73;;;19.70;98.30;;;;;;4937257;29;21101;-67
2022/05/31 13:27:21;;;;;;;2.07;0.87;;;19.70;98.30;;;;;;4934936;29;20515;-68
2022/05/31 13:30:01;;;;;;;1.53;0.70;;;19.50;97.60;;;;;;4936221;29;20710;-72
2022/05/31 13:32:35;;;;;;;1.40;0.77;;;19.40;97.20;;;;;;4929312;29;20532;-70
2022/05/31 13:35:11;;;;;;;1.37;0.70;;;19.40;98.10;;;;;;4930198;29;20457;-71
2022/05/31 13:37:58;;;;;;;4.10;1.27;;;19.30;97.90;;;;;;4924535;29;20489;-67
2022/05/31 13:40:31;;;;;;;1.77;0.80;;;19.20;97.40;;;;;;4921464;29;20494;-66
2022/05/31 13:43:01;;;;;;;0.80;0.70;;;19.30;96.50;;;;;;4928895;28;20459;-70
2022/05/31 13:45:31;;;;;;;0.50;0.50;;;19.40;97.10;;;;;;4929279;29;20678;-69
2022/05/31 13:48:01;;;;;;;1.40;0.90;;;19.60;97.00;;;;;;4934159;29;20452;-70
2022/05/31 13:50:37;;;;;;;0.50;0.30;;;19.70;97.20;;;;;;4929486;29;20445;-70
2022/05/31 13:53:08;;;;;;;0.80;0.60;;;19.90;96.40;;;;;;4932901;29;20977;-69